createdAt,value
2018-11-20T00:00:02.741Z,-0.1
2018-11-20T00:15:03.072Z,0.1
2018-11-20T00:30:03.430Z,0.1
2018-11-20T00:45:02.968Z,0.1
2018-11-20T01:00:03.174Z,0.2
2018-11-20T01:15:02.531Z,0.3
2018-11-20T01:30:03.053Z,0.4
2018-11-20T01:45:03.367Z,0.5
2018-11-20T02:00:03.003Z,0.6
2018-11-20T02:15:03.208Z,0.6
2018-11-20T02:30:02.903Z,0.6
2018-11-20T02:45:03.050Z,0.7
2018-11-20T03:00:02.646Z,0.8
2018-11-20T03:15:03.066Z,0.8
2018-11-20T03:30:03.393Z,0.9
2018-11-20T03:45:02.637Z,1
2018-11-20T04:00:02.894Z,1
2018-11-20T04:15:03.218Z,1.1
2018-11-20T04:30:02.831Z,1.2
2018-11-20T04:45:03.118Z,1.3
2018-11-20T05:00:02.667Z,1.4
2018-11-20T05:15:03.132Z,1.4
2018-11-20T05:30:02.465Z,1.4
2018-11-20T05:45:03.075Z,1.4
2018-11-20T06:00:03.296Z,1.4
2018-11-20T06:15:02.916Z,1.4
2018-11-20T06:30:02.522Z,1.4
2018-11-20T06:45:02.724Z,1.4
2018-11-20T07:00:02.995Z,1.4
2018-11-20T07:15:03.417Z,1.6
2018-11-20T07:30:03.134Z,1.7
2018-11-20T07:45:02.738Z,1.8
2018-11-20T08:00:03.206Z,1.9
2018-11-20T08:15:03.302Z,2.1
2018-11-20T08:30:02.723Z,2.2
2018-11-20T08:45:02.949Z,2.5
2018-11-20T09:00:03.289Z,2.8
2018-11-20T09:15:02.586Z,3.1
2018-11-20T09:30:03.018Z,3.5
2018-11-20T09:45:03.380Z,3.6
2018-11-20T10:00:02.671Z,4.2
2018-11-20T10:15:03.226Z,4.2
2018-11-20T10:30:02.634Z,4.5
2018-11-20T10:45:02.974Z,4.6
2018-11-20T11:00:03.308Z,4.6
2018-11-20T11:15:02.555Z,4.7
2018-11-20T11:30:03.005Z,4.9
2018-11-20T11:45:03.238Z,5.2
2018-11-20T12:00:02.505Z,5.2
2018-11-20T12:15:02.827Z,5.2
2018-11-20T12:30:02.892Z,5.1
2018-11-20T12:45:03.247Z,5.1
2018-11-20T13:00:02.588Z,5.1
2018-11-20T13:15:02.901Z,4.8
2018-11-20T13:30:03.315Z,4.9
2018-11-20T13:45:02.573Z,4.9
2018-11-20T14:00:03.008Z,4.8
2018-11-20T14:15:03.240Z,4.6
2018-11-20T14:30:02.592Z,4.4
2018-11-20T14:45:03.145Z,4.2
2018-11-20T15:00:03.339Z,3.9
2018-11-20T15:15:02.766Z,3.6
2018-11-20T15:30:03.160Z,3.2
2018-11-20T15:45:03.354Z,2.9
2018-11-20T16:00:03.081Z,2.7
2018-11-20T16:15:03.222Z,2.5
2018-11-20T16:30:02.461Z,2.2
2018-11-20T16:45:02.820Z,2.1
2018-11-20T17:00:03.140Z,1.9
2018-11-20T17:15:02.643Z,1.7
2018-11-20T17:30:03.057Z,1.6
2018-11-20T17:45:03.303Z,1.4
2018-11-20T18:00:03.007Z,1
2018-11-20T18:15:03.146Z,0.9
2018-11-20T18:30:02.704Z,0.8
2018-11-20T18:45:03.163Z,0.7
2018-11-20T19:00:03.303Z,0.4
2018-11-20T19:15:02.546Z,0.2
2018-11-20T19:30:02.415Z,0.2
2018-11-20T19:45:02.760Z,-0.2
2018-11-20T20:00:03.066Z,-0.2
2018-11-20T20:15:02.610Z,0.1
2018-11-20T20:30:03.216Z,0.4
2018-11-20T20:45:02.499Z,0.5
2018-11-20T21:00:02.839Z,0.6
2018-11-20T21:15:03.370Z,0.6
2018-11-20T21:30:02.976Z,0.8
2018-11-20T21:45:03.318Z,0.8
2018-11-20T22:00:02.592Z,0.9
2018-11-20T22:15:02.895Z,0.9
2018-11-20T22:30:03.294Z,0.9
2018-11-20T22:45:02.583Z,0.9
2018-11-20T23:00:02.953Z,1
2018-11-20T23:15:03.217Z,1.1
2018-11-20T23:30:02.667Z,1
2018-11-20T23:45:02.895Z,0.9
